Time;durP1;ratioP1;P1;durP2;ratioP2;P2;SDS_P1;SDS_P2;PMS_P1;PMS_P2;Temp;Humidity;BMP_temperature;BMP_pressure;BME280_temperature;BME280_humidity;BME280_pressure;Samples;Min_cycle;Max_cycle;Signal;HPM_P1;HPM_P2
2024/03/03 00:00:50;;;;;;;76.05;34.35;;;4.30;99.90;;;;;;7597715;19;20018;-76
2024/03/03 00:03:23;;;;;;;77.68;35.15;;;4.30;99.90;;;;;;7591368;19;20021;-74
2024/03/03 00:05:55;;;;;;;75.50;34.50;;;4.20;99.90;;;;;;7574648;19;20062;-74
2024/03/03 00:08:28;;;;;;;86.30;37.30;;;4.30;99.90;;;;;;7572381;19;20125;-74
2024/03/03 00:11:00;;;;;;;77.35;35.13;;;4.30;99.90;;;;;;7593070;19;20046;-73
2024/03/03 00:13:32;;;;;;;100.93;39.45;;;4.30;99.90;;;;;;7589170;19;21223;-73
2024/03/03 00:16:05;;;;;;;76.90;35.22;;;4.20;99.90;;;;;;7593175;19;20074;-76
2024/03/03 00:18:38;;;;;;;69.88;32.72;;;4.20;99.90;;;;;;7529943;19;20090;-74
2024/03/03 00:21:14;;;;;;;78.07;33.25;;;4.20;99.90;;;;;;7578030;19;20018;-74
2024/03/03 00:23:47;;;;;;;70.63;31.10;;;4.20;99.90;;;;;;7567540;19;20014;-73
2024/03/03 00:26:19;;;;;;;74.20;30.05;;;4.30;99.90;;;;;;7568417;19;20055;-75
2024/03/03 00:28:51;;;;;;;78.22;32.50;;;4.20;99.90;;;;;;7569720;19;20021;-75
2024/03/03 00:31:24;;;;;;;72.45;33.88;;;4.30;99.90;;;;;;7557677;19;20010;-75
2024/03/03 00:33:56;;;;;;;72.20;32.43;;;4.20;99.90;;;;;;7567410;19;20025;-75
2024/03/03 00:36:29;;;;;;;72.93;33.80;;;4.10;99.90;;;;;;7564752;19;20400;-75
2024/03/03 00:39:01;;;;;;;76.18;31.73;;;4.10;99.90;;;;;;7558146;19;20037;-75
2024/03/03 00:41:34;;;;;;;76.45;34.38;;;4.10;99.90;;;;;;7582699;19;20056;-75
2024/03/03 00:44:06;;;;;;;67.13;31.50;;;4.10;99.90;;;;;;7582215;19;21043;-75
2024/03/03 00:46:39;;;;;;;72.80;31.67;;;4.10;99.90;;;;;;7589821;19;20040;-75
2024/03/03 00:49:11;;;;;;;70.10;32.28;;;4.00;99.90;;;;;;7584197;19;21742;-75
2024/03/03 00:51:43;;;;;;;70.57;31.17;;;4.00;99.90;;;;;;7567584;19;20983;-74
2024/03/03 00:54:16;;;;;;;71.40;31.20;;;4.10;99.90;;;;;;7575536;19;20019;-74
2024/03/03 00:56:48;;;;;;;77.82;32.72;;;4.00;99.90;;;;;;7599083;19;20026;-74
2024/03/03 00:59:21;;;;;;;85.90;35.90;;;4.00;99.90;;;;;;7588153;19;20058;-74
2024/03/03 01:01:53;;;;;;;79.55;32.00;;;4.00;99.90;;;;;;7590093;19;20014;-73
2024/03/03 01:04:26;;;;;;;69.00;31.92;;;3.80;99.90;;;;;;7577325;19;20018;-74
2024/03/03 01:06:58;;;;;;;70.07;30.48;;;3.90;99.90;;;;;;7579970;19;20048;-74
2024/03/03 01:09:31;;;;;;;71.97;31.85;;;4.00;99.90;;;;;;7547175;19;20532;-75
2024/03/03 01:12:03;;;;;;;82.53;34.03;;;4.00;99.90;;;;;;7598193;19;20011;-75
2024/03/03 01:14:36;;;;;;;72.47;31.15;;;3.90;99.90;;;;;;7596685;19;20025;-75
2024/03/03 01:17:08;;;;;;;71.72;31.42;;;3.90;99.90;;;;;;7583961;19;20014;-75
2024/03/03 01:19:40;;;;;;;78.10;31.02;;;3.90;99.90;;;;;;7563315;19;20018;-75
2024/03/03 01:22:13;;;;;;;61.97;28.90;;;3.90;99.90;;;;;;7577235;19;20022;-75
2024/03/03 01:24:45;;;;;;;69.15;30.10;;;3.90;99.90;;;;;;7591795;19;20335;-75
2024/03/03 01:27:18;;;;;;;67.07;29.27;;;3.90;99.90;;;;;;7596858;19;20022;-75
2024/03/03 01:29:50;;;;;;;66.57;30.33;;;3.90;99.90;;;;;;7598645;19;20022;-76
2024/03/03 01:32:25;;;;;;;60.85;28.92;;;3.90;99.90;;;;;;7589978;19;20619;-75
2024/03/03 01:34:57;;;;;;;66.72;29.15;;;3.90;99.90;;;;;;7596951;19;20016;-75
2024/03/03 01:37:30;;;;;;;64.93;29.05;;;3.90;99.90;;;;;;7607673;19;20029;-75
2024/03/03 01:40:04;;;;;;;67.53;28.85;;;3.90;99.90;;;;;;7581566;19;20074;-75
2024/03/03 01:42:36;;;;;;;68.53;29.13;;;3.80;99.90;;;;;;7607892;19;20022;-75
2024/03/03 01:45:21;;;;;;;71.32;30.60;;;3.80;99.90;;;;;;7588438;19;20868;-75
2024/03/03 01:47:56;;;;;;;58.72;27.00;;;3.70;99.90;;;;;;7590733;19;20608;-75
2024/03/03 01:50:29;;;;;;;72.75;29.83;;;3.80;99.90;;;;;;7593212;19;20060;-75
2024/03/03 01:53:03;;;;;;;56.47;28.67;;;3.80;99.90;;;;;;7595650;19;20018;-75
2024/03/03 01:55:35;;;;;;;65.70;28.38;;;3.80;99.90;;;;;;7593552;19;20021;-75
2024/03/03 01:58:10;;;;;;;60.53;28.27;;;3.90;99.90;;;;;;7590542;19;20022;-75
2024/03/03 02:00:45;;;;;;;57.78;26.27;;;3.80;99.90;;;;;;7580919;19;20097;-76
2024/03/03 02:03:19;;;;;;;66.35;28.02;;;3.80;99.90;;;;;;7584435;19;20015;-75
2024/03/03 02:05:52;;;;;;;58.78;26.20;;;3.80;99.90;;;;;;7584234;19;20018;-75
2024/03/03 02:08:24;;;;;;;54.67;24.95;;;3.80;99.90;;;;;;7592854;19;20022;-75
2024/03/03 02:10:57;;;;;;;64.43;27.55;;;3.80;99.90;;;;;;7591961;19;20026;-75
2024/03/03 02:13:30;;;;;;;62.00;26.77;;;3.80;99.90;;;;;;7598723;19;20022;-75
2024/03/03 02:16:03;;;;;;;66.23;29.10;;;3.80;99.90;;;;;;7595856;19;20019;-74
2024/03/03 02:18:35;;;;;;;62.15;27.63;;;3.80;99.90;;;;;;7595203;19;20015;-75
2024/03/03 02:21:08;;;;;;;51.80;25.17;;;3.80;99.90;;;;;;7593153;19;20038;-75
2024/03/03 02:23:40;;;;;;;53.30;23.55;;;3.80;99.90;;;;;;7596575;19;20026;-75
2024/03/03 02:26:13;;;;;;;56.80;25.00;;;3.80;99.90;;;;;;7604428;19;20011;-75
2024/03/03 02:28:46;;;;;;;50.50;24.65;;;3.80;99.90;;;;;;7590769;19;20019;-74
2024/03/03 02:31:18;;;;;;;55.63;27.13;;;3.80;99.90;;;;;;7587792;19;20018;-74
2024/03/03 02:33:51;;;;;;;59.57;26.13;;;3.80;99.90;;;;;;7601664;19;20045;-74
2024/03/03 02:36:24;;;;;;;51.80;24.27;;;3.80;99.90;;;;;;7598952;19;20022;-74
2024/03/03 02:38:57;;;;;;;49.65;23.58;;;3.70;99.90;;;;;;7588781;19;21808;-73
2024/03/03 02:41:29;;;;;;;54.50;25.80;;;3.70;99.90;;;;;;7592132;19;20044;-74
2024/03/03 02:44:01;;;;;;;52.22;23.38;;;3.70;99.90;;;;;;7592319;19;20456;-75
2024/03/03 02:46:34;;;;;;;60.72;26.17;;;3.60;99.90;;;;;;7597432;19;20578;-75
2024/03/03 02:49:06;;;;;;;51.67;23.48;;;3.50;99.90;;;;;;7577703;19;20539;-75
2024/03/03 02:51:39;;;;;;;46.97;21.90;;;3.50;99.90;;;;;;7589035;19;20105;-75
2024/03/03 02:54:11;;;;;;;51.22;22.65;;;3.50;99.90;;;;;;7586057;19;20345;-76
2024/03/03 02:56:43;;;;;;;51.17;21.50;;;3.50;99.90;;;;;;7600941;19;20373;-76
2024/03/03 02:59:16;;;;;;;49.20;21.40;;;3.50;99.90;;;;;;7583251;19;20077;-75
2024/03/03 03:01:48;;;;;;;48.50;20.95;;;3.50;99.90;;;;;;7585791;19;20011;-75
2024/03/03 03:04:21;;;;;;;52.67;21.67;;;3.50;99.90;;;;;;7582315;19;20027;-76
2024/03/03 03:06:53;;;;;;;59.97;23.88;;;3.50;99.90;;;;;;7594990;19;20286;-75
2024/03/03 03:09:26;;;;;;;53.47;21.77;;;3.50;99.90;;;;;;7590879;19;20109;-76
2024/03/03 03:11:58;;;;;;;43.38;20.27;;;3.40;99.90;;;;;;7590132;19;20025;-75
2024/03/03 03:14:31;;;;;;;48.30;21.10;;;3.50;99.90;;;;;;7579996;19;20014;-76
2024/03/03 03:17:03;;;;;;;45.22;20.75;;;3.50;99.90;;;;;;7595968;19;20073;-75
2024/03/03 03:19:35;;;;;;;45.60;21.30;;;3.50;99.90;;;;;;7600916;19;20900;-75
2024/03/03 03:22:07;;;;;;;47.00;20.95;;;3.50;99.90;;;;;;7604579;19;20011;-75
2024/03/03 03:24:40;;;;;;;41.22;19.10;;;3.50;99.90;;;;;;7583083;19;20030;-75
2024/03/03 03:27:12;;;;;;;37.58;18.77;;;3.50;99.90;;;;;;7593618;19;20070;-74
2024/03/03 03:29:44;;;;;;;39.05;18.70;;;3.40;99.90;;;;;;7601231;19;20414;-76
2024/03/03 03:32:17;;;;;;;41.55;20.00;;;3.40;99.90;;;;;;7593341;19;20452;-75
2024/03/03 03:34:49;;;;;;;40.00;19.17;;;3.40;99.90;;;;;;7595760;19;20018;-76
2024/03/03 03:37:21;;;;;;;40.03;18.90;;;3.50;99.90;;;;;;7594413;19;20041;-76
2024/03/03 03:39:53;;;;;;;40.83;18.00;;;3.40;99.90;;;;;;7596331;19;20021;-76
2024/03/03 03:42:26;;;;;;;35.20;17.38;;;3.60;99.90;;;;;;7604600;19;20021;-75
2024/03/03 03:44:58;;;;;;;40.63;18.40;;;3.70;99.90;;;;;;7596243;19;20022;-75
2024/03/03 03:47:32;;;;;;;46.10;19.30;;;3.70;99.90;;;;;;7598453;19;20109;-75
2024/03/03 03:50:06;;;;;;;36.03;17.38;;;3.70;99.90;;;;;;7597201;19;20098;-76
2024/03/03 03:52:38;;;;;;;39.00;16.58;;;3.70;99.90;;;;;;7583516;19;20098;-75
2024/03/03 03:55:10;;;;;;;41.83;17.73;;;3.70;99.90;;;;;;7595451;19;20653;-75
2024/03/03 03:57:43;;;;;;;34.53;17.10;;;3.70;99.90;;;;;;7597668;19;20022;-76
2024/03/03 04:00:16;;;;;;;34.95;16.95;;;3.70;99.90;;;;;;7594211;19;20023;-76
2024/03/03 04:02:48;;;;;;;42.83;17.67;;;3.60;99.90;;;;;;7605281;19;20630;-74
2024/03/03 04:05:20;;;;;;;36.97;17.77;;;3.60;99.90;;;;;;7584709;19;20284;-75
2024/03/03 04:07:52;;;;;;;35.90;16.75;;;3.50;99.90;;;;;;7596854;19;20058;-74
2024/03/03 04:10:25;;;;;;;40.28;17.92;;;3.50;99.90;;;;;;7582581;19;20034;-74
2024/03/03 04:12:57;;;;;;;35.25;16.70;;;3.50;99.90;;;;;;7590909;19;20022;-74
2024/03/03 04:15:30;;;;;;;41.45;16.27;;;3.50;99.90;;;;;;7589078;19;20406;-76
2024/03/03 04:18:02;;;;;;;31.63;16.13;;;3.50;99.90;;;;;;7602007;19;20090;-74
2024/03/03 04:20:35;;;;;;;33.72;16.65;;;3.40;99.90;;;;;;7588644;19;20022;-76
2024/03/03 04:23:07;;;;;;;;;;;3.50;99.90;;;;;;7597558;19;20090;-74
2024/03/03 04:25:40;;;;;;;35.42;16.95;;;3.50;99.90;;;;;;7589016;19;19942;-73
2024/03/03 04:28:12;;;;;;;25.97;11.93;;;3.50;99.90;;;;;;7584291;19;20526;-73
2024/03/03 04:30:45;;;;;;;34.65;15.82;;;3.50;99.90;;;;;;7587690;19;20263;-76
2024/03/03 04:33:18;;;;;;;30.15;15.68;;;3.50;99.90;;;;;;7606344;19;20021;-74
2024/03/03 04:35:50;;;;;;;31.95;14.95;;;3.40;99.90;;;;;;7607462;19;20102;-74
2024/03/03 04:38:22;;;;;;;35.30;16.10;;;3.30;99.90;;;;;;7593982;19;20025;-74
2024/03/03 04:40:55;;;;;;;36.07;15.90;;;3.20;99.90;;;;;;7607155;19;20097;-74
2024/03/03 04:43:27;;;;;;;33.17;15.70;;;3.30;99.90;;;;;;7598324;19;20295;-74
2024/03/03 04:45:59;;;;;;;37.47;15.93;;;3.20;99.90;;;;;;7610057;19;20758;-74
2024/03/03 04:48:32;;;;;;;33.63;15.18;;;3.20;99.90;;;;;;7597973;19;20800;-75
2024/03/03 04:51:06;;;;;;;30.33;15.07;;;3.20;99.90;;;;;;7602860;19;20492;-74
2024/03/03 04:53:39;;;;;;;31.75;15.75;;;3.20;99.90;;;;;;7595031;19;20101;-74
2024/03/03 04:56:12;;;;;;;33.95;16.08;;;3.20;99.90;;;;;;7604062;19;21425;-74
2024/03/03 04:58:44;;;;;;;30.48;14.07;;;3.10;99.90;;;;;;7585918;19;21089;-73
2024/03/03 05:01:16;;;;;;;30.10;14.03;;;3.10;99.90;;;;;;7598078;19;20011;-76
2024/03/03 05:03:49;;;;;;;31.08;14.75;;;3.20;99.90;;;;;;7604992;19;20010;-74
2024/03/03 05:06:21;;;;;;;34.67;15.10;;;3.20;99.90;;;;;;7598635;19;20360;-76
2024/03/03 05:08:53;;;;;;;28.90;13.93;;;3.10;99.90;;;;;;7591233;19;20978;-75
2024/03/03 05:11:26;;;;;;;30.85;14.02;;;3.10;99.90;;;;;;7553990;19;20026;-73
2024/03/03 05:13:58;;;;;;;27.73;13.25;;;3.10;99.90;;;;;;7579382;19;20015;-76
2024/03/03 05:16:31;;;;;;;29.80;14.05;;;3.10;99.90;;;;;;7551232;19;20024;-74
2024/03/03 05:19:04;;;;;;;28.27;13.13;;;3.10;99.90;;;;;;7574830;19;20431;-74
2024/03/03 05:21:36;;;;;;;33.20;15.07;;;3.10;99.90;;;;;;7570181;19;20340;-74
2024/03/03 05:24:09;;;;;;;31.25;13.60;;;3.10;99.90;;;;;;7575402;19;20793;-77
2024/03/03 05:26:45;;;;;;;27.83;14.63;;;3.00;99.90;;;;;;7546102;19;20102;-77
2024/03/03 05:29:17;;;;;;;34.85;15.55;;;3.00;99.90;;;;;;7573561;19;20605;-77
2024/03/03 05:31:50;;;;;;;33.28;14.45;;;3.00;99.90;;;;;;7546217;19;20010;-79
2024/03/03 05:34:22;;;;;;;31.58;15.38;;;2.90;99.90;;;;;;7604603;19;20033;-80
2024/03/03 05:36:54;;;;;;;29.92;13.18;;;2.80;99.90;;;;;;7581842;19;20011;-79
2024/03/03 05:39:28;;;;;;;31.23;13.60;;;2.80;99.90;;;;;;7575166;19;20022;-79
2024/03/03 05:42:01;;;;;;;27.65;13.07;;;2.90;99.90;;;;;;7584551;19;20014;-79
2024/03/03 05:44:33;;;;;;;28.05;12.82;;;2.90;99.90;;;;;;7602671;19;20132;-79
2024/03/03 05:47:07;;;;;;;27.50;12.48;;;2.90;99.90;;;;;;7609232;19;20344;-76
2024/03/03 05:49:40;;;;;;;26.08;11.30;;;2.90;99.90;;;;;;7585089;19;20022;-78
2024/03/03 05:52:12;;;;;;;19.88;10.95;;;2.90;99.90;;;;;;7580951;19;20018;-79
2024/03/03 05:54:44;;;;;;;21.08;10.93;;;2.90;99.90;;;;;;7588880;19;20387;-78
2024/03/03 05:57:17;;;;;;;21.55;10.30;;;3.00;99.90;;;;;;7637953;19;20595;-79
2024/03/03 05:59:49;;;;;;;22.95;10.65;;;3.00;99.90;;;;;;7646849;19;20027;-78
2024/03/03 06:02:22;;;;;;;23.42;10.65;;;3.10;99.90;;;;;;7619876;19;20015;-78
2024/03/03 06:04:54;;;;;;;20.97;10.37;;;3.20;99.90;;;;;;7613815;19;20010;-78
2024/03/03 06:07:26;;;;;;;21.05;9.20;;;3.30;99.90;;;;;;7621466;19;20946;-78
2024/03/03 06:09:59;;;;;;;15.23;8.35;;;3.30;99.90;;;;;;7620591;19;20039;-78
2024/03/03 06:12:31;;;;;;;17.40;8.13;;;3.40;99.90;;;;;;7614594;19;20018;-77
2024/03/03 06:15:05;;;;;;;16.38;8.07;;;3.50;99.90;;;;;;7618313;19;20046;-77
2024/03/03 06:17:38;;;;;;;13.50;7.25;;;3.50;99.90;;;;;;7606901;19;20038;-77
2024/03/03 06:20:11;;;;;;;;;;;3.50;99.90;;;;;;7620464;19;20493;-78
2024/03/03 06:22:43;;;;;;;17.30;7.78;;;3.50;99.90;;;;;;7617916;19;20493;-78
2024/03/03 06:25:16;;;;;;;16.15;7.10;;;3.60;99.90;;;;;;7582820;19;20011;-77
2024/03/03 06:27:48;;;;;;;10.73;6.15;;;3.70;99.90;;;;;;7587097;19;20085;-77
2024/03/03 06:30:21;;;;;;;12.45;6.13;;;3.80;99.90;;;;;;7628463;19;20025;-78
2024/03/03 06:32:53;;;;;;;12.73;6.60;;;3.80;99.90;;;;;;7617438;19;20022;-77
2024/03/03 06:35:26;;;;;;;12.75;5.93;;;3.80;99.90;;;;;;7598828;19;20035;-78
2024/03/03 06:38:00;;;;;;;11.52;6.38;;;3.90;99.90;;;;;;7607091;19;20102;-78
2024/03/03 06:40:32;;;;;;;9.95;6.00;;;4.00;99.90;;;;;;7605455;19;20019;-77
2024/03/03 06:43:05;;;;;;;12.40;6.25;;;4.10;99.90;;;;;;7601481;19;20025;-78
2024/03/03 06:45:37;;;;;;;12.02;6.03;;;4.20;99.90;;;;;;7605151;19;20038;-78
2024/03/03 06:48:10;;;;;;;14.27;6.50;;;4.20;99.90;;;;;;7606498;19;20662;-76
2024/03/03 06:50:42;;;;;;;16.07;7.73;;;4.20;99.90;;;;;;7619947;19;20025;-78
2024/03/03 06:53:14;;;;;;;12.93;6.00;;;4.30;99.90;;;;;;7608291;19;20022;-78
2024/03/03 06:55:47;;;;;;;10.60;6.13;;;4.40;99.90;;;;;;7595235;19;20035;-78
2024/03/03 06:58:19;;;;;;;10.20;5.57;;;4.50;99.90;;;;;;7611447;19;20017;-78
2024/03/03 07:00:51;;;;;;;13.43;5.95;;;4.60;99.90;;;;;;7592300;19;20826;-78
2024/03/03 07:06:03;;;;;;;11.82;5.88;;;4.70;99.90;;;;;;7583839;19;20022;-77
2024/03/03 07:08:36;;;;;;;10.90;5.93;;;4.80;99.90;;;;;;7595568;19;20120;-77
2024/03/03 07:11:08;;;;;;;9.98;6.10;;;4.90;99.90;;;;;;7567036;19;20675;-78
2024/03/03 07:13:41;;;;;;;13.35;5.75;;;5.00;99.90;;;;;;7583714;19;20094;-78
2024/03/03 07:16:15;;;;;;;11.30;6.57;;;5.10;99.90;;;;;;7602981;19;20014;-78
2024/03/03 07:18:47;;;;;;;11.45;6.03;;;5.20;99.90;;;;;;7578006;19;20025;-77
2024/03/03 07:21:20;;;;;;;8.40;5.37;;;5.40;99.90;;;;;;7604383;19;20014;-78
2024/03/03 07:23:52;;;;;;;11.40;5.20;;;5.60;99.90;;;;;;7586391;19;20369;-78
2024/03/03 07:26:25;;;;;;;7.57;4.40;;;5.80;99.90;;;;;;7599016;19;20046;-78
2024/03/03 07:28:57;;;;;;;9.23;4.30;;;6.00;99.90;;;;;;7594808;19;20050;-79
2024/03/03 07:31:30;;;;;;;9.23;4.50;;;6.20;99.90;;;;;;7588223;19;20341;-77
2024/03/03 07:34:03;;;;;;;7.68;3.42;;;6.50;99.90;;;;;;7585774;19;20569;-79
2024/03/03 07:36:36;;;;;;;7.90;3.45;;;6.80;99.90;;;;;;7583502;19;20018;-79
2024/03/03 07:39:08;;;;;;;6.82;3.97;;;7.10;99.90;;;;;;7575824;19;20029;-78
2024/03/03 07:41:40;;;;;;;8.65;3.90;;;7.30;99.90;;;;;;7569072;19;20058;-79
2024/03/03 07:44:13;;;;;;;6.97;3.17;;;7.50;99.90;;;;;;7602136;19;21218;-77
2024/03/03 07:46:45;;;;;;;5.57;3.65;;;7.80;99.90;;;;;;7587284;19;20018;-78
2024/03/03 07:49:17;;;;;;;6.38;3.20;;;8.10;99.90;;;;;;7594037;19;20022;-78
2024/03/03 07:51:50;;;;;;;5.82;3.35;;;8.30;99.90;;;;;;7567070;19;20014;-78
2024/03/03 07:54:22;;;;;;;4.85;2.80;;;8.50;99.90;;;;;;7559602;19;20033;-78
2024/03/03 07:56:55;;;;;;;4.35;2.35;;;8.70;99.90;;;;;;7545255;19;20026;-76
2024/03/03 07:59:28;;;;;;;5.27;2.63;;;8.90;99.90;;;;;;7571699;19;20014;-79
2024/03/03 08:02:00;;;;;;;5.23;2.33;;;9.10;99.90;;;;;;7557549;19;20855;-77
2024/03/03 08:04:33;;;;;;;3.60;1.70;;;9.30;99.90;;;;;;7563557;19;21315;-77
2024/03/03 08:07:05;;;;;;;5.18;2.38;;;9.50;99.90;;;;;;7563522;19;20011;-77
2024/03/03 08:09:39;;;;;;;3.10;2.03;;;9.70;99.90;;;;;;7552205;19;20015;-77
2024/03/03 08:12:11;;;;;;;5.43;2.10;;;9.80;99.90;;;;;;7559805;19;20011;-78
2024/03/03 08:14:44;;;;;;;2.55;1.50;;;9.90;99.90;;;;;;7590532;19;20014;-77
2024/03/03 08:17:16;;;;;;;4.93;1.55;;;10.10;99.90;;;;;;7570292;19;20014;-76
2024/03/03 08:19:48;;;;;;;3.33;1.30;;;10.30;99.90;;;;;;7550286;19;20015;-76
2024/03/03 08:22:20;;;;;;;2.38;1.15;;;10.40;99.90;;;;;;7562375;19;20022;-76
2024/03/03 08:24:54;;;;;;;2.08;1.00;;;10.60;99.90;;;;;;7563891;19;22904;-77
2024/03/03 08:27:27;;;;;;;2.70;1.10;;;10.70;99.90;;;;;;7576745;19;20014;-76
2024/03/03 08:30:01;;;;;;;3.63;1.10;;;11.00;97.20;;;;;;7578369;19;20500;-77
2024/03/03 08:32:34;;;;;;;2.95;1.17;;;11.20;97.60;;;;;;7551956;19;20014;-77
2024/03/03 08:35:07;;;;;;;1.65;0.80;;;11.40;96.40;;;;;;7565399;19;20026;-73
2024/03/03 08:37:43;;;;;;;1.95;1.08;;;11.50;96.40;;;;;;7539766;19;21488;-72
2024/03/03 08:40:18;;;;;;;5.55;1.15;;;11.70;95.80;;;;;;7541713;19;20018;-73
2024/03/03 08:42:51;;;;;;;9.00;1.10;;;11.80;96.30;;;;;;7536912;19;20022;-74
2024/03/03 08:45:23;;;;;;;2.33;1.30;;;11.80;96.00;;;;;;7554687;19;20519;-76
2024/03/03 08:47:56;;;;;;;3.40;1.53;;;11.90;96.10;;;;;;7580123;19;20014;-73
2024/03/03 08:50:28;;;;;;;4.10;1.63;;;11.90;97.20;;;;;;7559059;19;20060;-76
2024/03/03 08:53:01;;;;;;;1.87;1.30;;;11.90;97.70;;;;;;7569099;19;20056;-77
2024/03/03 08:55:34;;;;;;;3.97;1.92;;;12.00;97.30;;;;;;7556176;19;20015;-77
2024/03/03 08:58:07;;;;;;;2.67;1.30;;;12.00;96.10;;;;;;7554310;19;21047;-74
2024/03/03 09:00:39;;;;;;;2.17;1.20;;;12.10;94.60;;;;;;7593688;19;20014;-74
2024/03/03 09:03:12;;;;;;;3.75;1.20;;;12.20;95.50;;;;;;7549677;19;20022;-75
2024/03/03 09:05:45;;;;;;;3.90;1.33;;;12.20;96.30;;;;;;7566427;19;20054;-74
2024/03/03 09:08:17;;;;;;;1.95;1.05;;;12.20;96.10;;;;;;7547682;19;20019;-72
2024/03/03 09:10:56;;;;;;;3.03;1.20;;;12.30;95.50;;;;;;7562973;19;20014;-72
2024/03/03 09:13:28;;;;;;;2.40;0.85;;;12.30;95.50;;;;;;7572995;19;20015;-73
2024/03/03 09:16:01;;;;;;;4.13;1.73;;;12.50;93.30;;;;;;7585313;19;20014;-74
2024/03/03 09:18:34;;;;;;;2.42;1.33;;;12.50;93.70;;;;;;7595980;19;20033;-73
2024/03/03 09:21:07;;;;;;;2.20;1.08;;;12.50;93.50;;;;;;7591438;19;20021;-74
2024/03/03 09:23:39;;;;;;;;;;;12.60;93.40;;;;;;7539436;19;20018;-74
2024/03/03 09:26:12;;;;;;;3.75;1.08;;;12.60;93.20;;;;;;7544070;19;19919;-74
2024/03/03 09:28:44;;;;;;;1.70;1.25;;;12.70;91.70;;;;;;7572065;19;20022;-74
2024/03/03 09:31:18;;;;;;;1.90;1.07;;;12.80;92.90;;;;;;7563454;19;20026;-73
2024/03/03 09:33:51;;;;;;;2.35;1.23;;;12.80;93.20;;;;;;7575110;19;20021;-74
2024/03/03 09:36:23;;;;;;;1.33;1.17;;;12.80;93.60;;;;;;7557332;19;20018;-74
2024/03/03 09:38:55;;;;;;;1.52;1.25;;;12.80;93.50;;;;;;7556876;19;20306;-74
2024/03/03 09:41:28;;;;;;;1.52;1.00;;;;;;;;;;7566061;19;20010;-77
2024/03/03 09:44:11;;;;;;;1.45;1.08;;;;;;;;;;7562950;19;20022;-75
2024/03/03 09:46:44;;;;;;;2.53;1.17;;;;;;;;;;7530759;19;20025;-75
2024/03/03 09:49:18;;;;;;;2.33;1.10;;;;;;;;;;7560092;19;20018;-76
2024/03/03 09:51:52;;;;;;;2.60;1.40;;;;;;;;;;7568021;19;20435;-73
2024/03/03 09:54:25;;;;;;;3.65;1.75;;;;;;;;;;7574088;19;20014;-73
2024/03/03 09:56:58;;;;;;;1.83;1.27;;;;;;;;;;7564478;19;20022;-73
2024/03/03 09:59:31;;;;;;;2.15;1.45;;;;;;;;;;7574725;19;20403;-77
2024/03/03 10:02:06;;;;;;;1.83;1.30;;;;;;;;;;7550182;19;20010;-76
2024/03/03 10:04:40;;;;;;;2.63;1.35;;;;;;;;;;7556788;19;20311;-75
2024/03/03 10:07:13;;;;;;;;;;;;;;;;;;7573112;19;20014;-75
2024/03/03 10:09:48;;;;;;;4.70;1.50;;;;;;;;;;7574883;19;20565;-75
2024/03/03 10:12:23;;;;;;;2.92;1.48;;;;;;;;;;7560398;19;20282;-75
2024/03/03 10:14:59;;;;;;;9.30;1.70;;;;;;;;;;7577005;19;20015;-75
2024/03/03 10:17:32;;;;;;;2.00;1.58;;;;;;;;;;7586097;19;20086;-75
2024/03/03 10:20:08;;;;;;;2.80;1.57;;;;;;;;;;7578527;19;20014;-75
2024/03/03 10:22:44;;;;;;;3.53;1.77;;;;;;;;;;7600796;19;20290;-75
2024/03/03 10:25:18;;;;;;;3.47;1.63;;;;;;;;;;7563030;19;20014;-76
2024/03/03 10:27:51;;;;;;;2.75;1.50;;;;;;;;;;7573160;19;20619;-75
2024/03/03 10:30:24;;;;;;;4.47;1.73;;;;;;;;;;7576717;19;20021;-76
2024/03/03 10:33:04;;;;;;;1.47;1.27;;;;;;;;;;7561734;19;20010;-76
2024/03/03 10:35:37;;;;;;;3.88;1.55;;;;;;;;;;7575941;19;20026;-75
2024/03/03 10:38:10;;;;;;;5.25;1.73;;;;;;;;;;7542392;19;20057;-75
2024/03/03 10:40:44;;;;;;;2.80;2.00;;;;;;;;;;7559848;19;20018;-74
2024/03/03 10:43:17;;;;;;;;;;;;;;;;;;7536539;19;20287;-73
2024/03/03 10:45:51;;;;;;;3.55;2.00;;;;;;;;;;7567770;19;19955;-77
2024/03/03 10:48:25;;;;;;;6.30;2.00;;;;;;;;;;7567154;19;20701;-77
2024/03/03 10:50:58;;;;;;;6.97;2.17;;;;;;;;;;7542727;19;20467;-77
2024/03/03 10:53:31;;;;;;;2.05;1.40;;;;;;;;;;7589423;19;20018;-76
2024/03/03 10:56:04;;;;;;;2.33;1.40;;;;;;;;;;7568947;19;20014;-74
2024/03/03 10:58:38;;;;;;;;;;;;;;;;;;7603895;19;20900;-73
2024/03/03 11:01:11;;;;;;;3.00;1.10;;;;;;;;;;7584920;19;20795;-75
2024/03/03 11:03:45;;;;;;;3.13;1.33;;;;;;;;;;7580249;19;21003;-74
2024/03/03 11:06:18;;;;;;;2.72;1.58;;;;;;;;;;7589684;19;21219;-75
2024/03/03 11:08:52;;;;;;;3.13;1.48;;;;;;;;;;7587060;19;20014;-74
2024/03/03 11:11:25;;;;;;;3.50;1.20;;;;;;;;;;7570676;19;20018;-75
2024/03/03 11:14:14;;;;;;;4.45;1.10;;;;;;;;;;7568676;19;20026;-76
2024/03/03 11:16:49;;;;;;;1.88;1.25;;;;;;;;;;7584308;19;20022;-75
2024/03/03 11:19:32;;;;;;;7.93;1.17;;;;;;;;;;7580998;19;20029;-76
2024/03/03 11:22:07;;;;;;;4.70;1.20;;;;;;;;;;7585642;19;20029;-75
2024/03/03 11:24:41;;;;;;;1.73;1.30;;;;;;;;;;7584298;19;20498;-77
2024/03/03 11:27:15;;;;;;;1.48;0.75;;;;;;;;;;7585334;19;20037;-75
2024/03/03 11:29:48;;;;;;;;;;;;;;;;;;7603800;19;20021;-74
2024/03/03 11:32:23;;;;;;;6.60;1.90;;;;;;;;;;7596606;19;19922;-75
2024/03/03 11:34:56;;;;;;;3.75;1.88;;;;;;;;;;7591423;19;20029;-77
2024/03/03 11:37:30;;;;;;;2.22;1.80;;;;;;;;;;7597802;19;20032;-78
2024/03/03 11:40:03;;;;;;;;;;;;;;;;;;7573167;19;20018;-75
2024/03/03 11:42:41;;;;;;;6.65;3.13;;;;;;;;;;7550522;19;19935;-77
2024/03/03 11:45:14;;;;;;;6.78;1.60;;;;;;;;;;7563328;19;20378;-75
2024/03/03 11:47:47;;;;;;;3.72;2.00;;;;;;;;;;7591278;19;21133;-77
2024/03/03 11:50:20;;;;;;;;;;;;;;;;;;7583285;19;20950;-74
2024/03/03 11:52:53;;;;;;;3.38;1.52;;;;;;;;;;7570769;19;19928;-76
2024/03/03 11:55:29;;;;;;;4.00;2.25;;;;;;;;;;7570684;19;20388;-73
2024/03/03 11:58:02;;;;;;;4.97;1.90;;;;;;;;;;7586932;19;20097;-75
2024/03/03 12:00:35;;;;;;;;;;;;;;;;;;7605138;19;21247;-75
2024/03/03 12:03:09;;;;;;;1.92;1.52;;;;;;;;;;7590667;19;20325;-73
2024/03/03 12:05:41;;;;;;;2.70;1.60;;;;;;;;;;7581364;19;20568;-74
2024/03/03 12:08:19;;;;;;;5.27;2.00;;;;;;;;;;7555369;19;20792;-75
2024/03/03 12:10:52;;;;;;;2.67;1.88;;;;;;;;;;7560558;19;20990;-74
2024/03/03 12:13:24;;;;;;;2.92;1.60;;;;;;;;;;7575975;19;20014;-75
2024/03/03 12:16:00;;;;;;;2.75;1.60;;;;;;;;;;7543209;19;20023;-74
2024/03/03 12:18:32;;;;;;;5.32;1.67;;;;;;;;;;7586125;19;20018;-75
2024/03/03 12:21:06;;;;;;;2.25;1.67;;;;;;;;;;7578636;19;20519;-74
2024/03/03 12:23:39;;;;;;;3.13;1.48;;;;;;;;;;7579548;19;20026;-75
2024/03/03 12:26:12;;;;;;;4.95;1.55;;;;;;;;;;7583573;19;20028;-74
2024/03/03 12:28:45;;;;;;;2.53;1.50;;;;;;;;;;7544886;19;20097;-75
2024/03/03 12:31:18;;;;;;;7.97;1.60;;;;;;;;;;7561888;19;20923;-74
2024/03/03 12:33:52;;;;;;;1.58;0.77;;;;;;;;;;7543675;19;20025;-75
2024/03/03 12:36:28;;;;;;;3.88;0.90;;;;;;;;;;7571054;19;20022;-77
2024/03/03 12:39:07;;;;;;;1.25;0.85;;;;;;;;;;7589713;19;20029;-75
2024/03/03 12:41:45;;;;;;;2.58;1.30;;;;;;;;;;7584562;19;20021;-75
2024/03/03 12:44:18;;;;;;;5.13;1.08;;;;;;;;;;7583439;19;20060;-76
2024/03/03 12:46:50;;;;;;;5.07;1.02;;;;;;;;;;7577445;19;22964;-77
2024/03/03 12:49:23;;;;;;;1.70;0.90;;;;;;;;;;7565122;19;20528;-77
2024/03/03 12:51:56;;;;;;;;;;;;;;;;;;7578222;19;20014;-75
2024/03/03 12:54:29;;;;;;;1.55;0.85;;;;;;;;;;7557654;19;19923;-74
2024/03/03 12:57:02;;;;;;;2.33;1.05;;;;;;;;;;7558678;19;20118;-73
2024/03/03 12:59:35;;;;;;;4.57;1.17;;;;;;;;;;7566101;19;20048;-73
2024/03/03 13:02:13;;;;;;;1.15;0.80;;;;;;;;;;7591179;19;20039;-72
2024/03/03 13:04:46;;;;;;;4.85;1.10;;;;;;;;;;7573089;19;20042;-75
2024/03/03 13:07:20;;;;;;;2.97;1.03;;;;;;;;;;7601122;19;20023;-74
2024/03/03 13:09:52;;;;;;;3.35;1.23;;;;;;;;;;7597982;19;20029;-76
2024/03/03 13:12:25;;;;;;;3.92;1.13;;;;;;;;;;7592151;19;20510;-76
2024/03/03 13:14:58;;;;;;;20.52;1.17;;;;;;;;;;7592721;19;20050;-74
2024/03/03 13:17:31;;;;;;;3.78;0.90;;;;;;;;;;7585917;19;21334;-75
2024/03/03 13:20:04;;;;;;;3.10;1.10;;;;;;;;;;7585887;19;20022;-74
2024/03/03 13:22:36;;;;;;;1.52;0.90;;;;;;;;;;7593663;19;20031;-76
2024/03/03 13:25:10;;;;;;;2.38;1.08;;;;;;;;;;7572481;19;20014;-74
2024/03/03 13:27:43;;;;;;;3.88;1.10;;;;;;;;;;7572070;19;20010;-74
2024/03/03 13:30:16;;;;;;;1.42;1.00;;;;;;;;;;7566208;19;20014;-75
2024/03/03 13:32:48;;;;;;;3.00;1.20;;;;;;;;;;7586015;19;21651;-76
2024/03/03 13:35:21;;;;;;;2.00;0.82;;;;;;;;;;7571683;19;20017;-74
2024/03/03 13:37:55;;;;;;;1.73;1.00;;;;;;;;;;7576925;19;20006;-76
2024/03/03 13:40:27;;;;;;;1.70;0.73;;;;;;;;;;7560449;19;20017;-72
2024/03/03 13:43:00;;;;;;;3.05;0.85;;;;;;;;;;7559650;19;20010;-72
2024/03/03 13:45:34;;;;;;;2.92;0.88;;;;;;;;;;7554746;19;21061;-72
2024/03/03 13:48:14;;;;;;;5.22;1.13;;;;;;;;;;7583539;19;20524;-74
2024/03/03 13:50:47;;;;;;;3.35;1.00;;;;;;;;;;7576537;19;20021;-73